»·PEaware :: UAL1900 KSFO-KSAN

UAL1900 :: KSFO-KSAN

FLIGHT INFORMATION

Flight Status: Arrived
Operator:
United Airlines
More flights by this operator :: More flights under this callsign
Pilot: Saso K. (7898)
Aircraft: AIRBUS A320
(A320)
More flights by this aircraft type
Origin: KSFO San Francisco Intl
United States
Destination: KSAN San Diego Intl-Lindbergh
United States
More flights between these airports :: More routes between these airports
Route: +OFFSH1 MCKEY LAX BAYVU5
File this flight plan on PilotEdge
Remarks: EET / KZLA0026
Altitude:
(Current/Filed)
35,000ft
Speed:
(Current/Filed)
437kts
Departed: 21-Jun-17 03:16 PM
Arrived: 21-Jun-17 04:44 PM
Distance/Time
Traveled:
388nm/1:28
Distance/Time
To Go:
Arrived

Flight Plot

Page will automatically refresh every two minutes.


Map Options




Map Legend


Flown Route
Filed Route
Departure Airport
Arrival Airport
Navaid (VOR, NDB)
Fix

Horizontal Profiles

Position Reports

Time Latitude Longitude Heading Altitude Ground
Speed
21-Jun-17 14:33 37.620289 -122.389325 26 32ft 0kts
21-Jun-17 14:34 37.620289 -122.389325 26 32ft 0kts
21-Jun-17 14:35 37.620289 -122.389326 26 32ft 0kts
21-Jun-17 14:36 37.620289 -122.389325 26 32ft 0kts
21-Jun-17 14:37 37.620289 -122.389325 26 32ft 0kts
21-Jun-17 14:38 37.620289 -122.389325 26 32ft 0kts
21-Jun-17 14:39 37.620289 -122.389325 26 32ft 0kts
21-Jun-17 14:39 37.620289 -122.389325 26 32ft 0kts
21-Jun-17 14:40 37.620289 -122.389325 26 32ft 0kts
21-Jun-17 14:41 37.620289 -122.389325 26 32ft 0kts
21-Jun-17 14:43 37.620289 -122.389325 26 32ft 0kts
21-Jun-17 14:44 37.620289 -122.389325 26 32ft 0kts
21-Jun-17 14:45 37.620289 -122.389325 26 32ft 0kts
21-Jun-17 14:45 37.620289 -122.389325 26 32ft 0kts
21-Jun-17 14:46 37.620289 -122.389325 26 32ft 0kts
21-Jun-17 14:47 37.620289 -122.389325 26 32ft 0kts
21-Jun-17 14:48 37.620289 -122.389325 26 32ft 0kts
21-Jun-17 14:49 37.620289 -122.389325 26 32ft 0kts
21-Jun-17 14:50 37.620289 -122.389325 26 32ft 0kts
21-Jun-17 15:00 37.620289 -122.389325 26 32ft 0kts
21-Jun-17 15:01 37.620289 -122.389325 26 32ft 0kts
21-Jun-17 15:02 37.620289 -122.389325 26 32ft 0kts
21-Jun-17 15:03 37.620289 -122.389325 26 32ft 0kts
21-Jun-17 15:04 37.620289 -122.389325 26 32ft 0kts
21-Jun-17 15:05 37.620277 -122.389333 26 32ft 1kts
21-Jun-17 15:06 37.619747 -122.389670 26 32ft 2kts
21-Jun-17 15:07 37.619404 -122.389806 297 32ft 0kts
21-Jun-17 15:08 37.619980 -122.391149 297 32ft 1kts
21-Jun-17 15:09 37.619989 -122.391169 297 32ft 0kts
21-Jun-17 15:10 37.619992 -122.391177 297 32ft 0kts
21-Jun-17 15:11 37.620495 -122.392062 350 32ft 3kts
21-Jun-17 15:12 37.622341 -122.390653 74 31ft 10kts
21-Jun-17 15:13 37.621740 -122.386987 116 32ft 14kts
21-Jun-17 15:14 37.619254 -122.381054 118 32ft 19kts
21-Jun-17 15:15 37.614990 -122.380738 205 32ft 18kts
21-Jun-17 15:16 37.610578 -122.383636 208 32ft 10kts
21-Jun-17 15:17 37.609183 -122.383578 121 32ft 3kts
21-Jun-17 15:18 37.608742 -122.382386 45 30ft 2kts
21-Jun-17 15:19 37.625314 -122.371431 24 449ft 149kts
21-Jun-17 15:20 37.668074 -122.365495 4 2747ft 192kts
21-Jun-17 15:21 37.719728 -122.396192 284 4867ft 277kts
21-Jun-17 15:22 37.681089 -122.473447 217 8308ft 289kts
21-Jun-17 15:23 37.616980 -122.535789 217 10876ft 322kts
21-Jun-17 15:24 37.542483 -122.608697 217 12776ft 361kts
21-Jun-17 15:25 37.463213 -122.684101 203 15201ft 369kts
21-Jun-17 15:26 37.363166 -122.677322 167 17309ft 375kts
21-Jun-17 15:27 37.261090 -122.650354 167 19273ft 385kts
21-Jun-17 15:28 37.156283 -122.622862 167 21033ft 394kts
21-Jun-17 15:29 37.048394 -122.594643 169 22561ft 405kts
21-Jun-17 15:30 36.937900 -122.565831 170 23537ft 428kts
21-Jun-17 15:31 36.821534 -122.535568 170 24914ft 436kts
21-Jun-17 15:32 36.703366 -122.504942 170 26170ft 444kts
21-Jun-17 15:33 36.582250 -122.473652 170 27355ft 451kts
21-Jun-17 15:34 36.460123 -122.439590 162 28446ft 460kts
21-Jun-17 15:35 36.360074 -122.341838 133 29334ft 479kts
21-Jun-17 15:36 36.278539 -122.221879 133 30627ft 474kts
21-Jun-17 15:37 36.194517 -122.099856 134 31815ft 471kts
21-Jun-17 15:38 36.110849 -121.978777 134 32918ft 468kts
21-Jun-17 15:39 36.028052 -121.859381 134 33935ft 465kts
21-Jun-17 15:40 35.945153 -121.740262 134 34830ft 463kts
21-Jun-17 15:41 35.862840 -121.622390 134 34866ft 463kts
21-Jun-17 15:42 35.779323 -121.503214 134 34838ft 464kts
21-Jun-17 15:43 35.695760 -121.384388 134 34825ft 464kts
21-Jun-17 15:44 35.621223 -121.278029 135 34827ft 464kts
21-Jun-17 15:45 35.537648 -121.159887 135 34820ft 463kts
21-Jun-17 15:46 35.457596 -121.037788 128 34840ft 467kts
21-Jun-17 15:47 35.396111 -120.928993 128 34866ft 467kts
21-Jun-17 15:48 35.327734 -120.808398 128 34874ft 466kts
21-Jun-17 15:49 35.254365 -120.679454 128 34867ft 466kts
21-Jun-17 15:50 35.181691 -120.552194 128 34865ft 466kts
21-Jun-17 15:51 35.108684 -120.424813 128 34877ft 466kts
21-Jun-17 15:52 35.037950 -120.301242 128 34890ft 465kts
21-Jun-17 15:53 34.965166 -120.174834 128 34912ft 462kts
21-Jun-17 15:54 34.895477 -120.054521 126 34888ft 457kts
21-Jun-17 15:55 34.828158 -119.938692 126 34833ft 453kts
21-Jun-17 15:56 34.757948 -119.818283 126 34802ft 451kts
21-Jun-17 15:57 34.686365 -119.695939 126 34805ft 450kts
21-Jun-17 15:58 34.614351 -119.573280 126 34822ft 451kts
21-Jun-17 15:59 34.542308 -119.450992 126 34843ft 452kts
21-Jun-17 16:00 34.471796 -119.331563 127 34856ft 452kts
21-Jun-17 16:01 34.407885 -119.223078 127 34862ft 453kts
21-Jun-17 16:02 34.336254 -119.102661 127 34856ft 453kts
21-Jun-17 16:03 34.265263 -118.983725 127 34854ft 453kts
21-Jun-17 16:04 34.195025 -118.866435 126 34858ft 452kts
21-Jun-17 16:05 34.125075 -118.750005 126 34856ft 451kts
21-Jun-17 16:06 34.054265 -118.632525 126 34857ft 451kts
21-Jun-17 16:07 33.986343 -118.520194 125 34855ft 451kts
21-Jun-17 16:08 33.912449 -118.405746 132 34825ft 451kts
21-Jun-17 16:09 33.842711 -118.315954 133 32826ft 456kts
21-Jun-17 16:10 33.762263 -118.212681 134 30227ft 461kts
21-Jun-17 16:11 33.678776 -118.106177 134 27888ft 455kts
21-Jun-17 16:12 33.596101 -118.001032 134 25801ft 442kts
21-Jun-17 16:13 33.514503 -117.897562 134 23673ft 428kts
21-Jun-17 16:14 33.435492 -117.797664 134 21547ft 415kts
21-Jun-17 16:15 33.358710 -117.700870 134 19431ft 402kts
21-Jun-17 16:16 33.284082 -117.607043 135 17357ft 388kts
21-Jun-17 16:17 33.204026 -117.527227 145 15252ft 374kts
21-Jun-17 16:18 33.122557 -117.457635 148 12998ft 368kts
21-Jun-17 16:19 33.038663 -117.390538 148 10569ft 361kts
21-Jun-17 16:20 32.965303 -117.331727 149 9933ft 302kts
21-Jun-17 16:21 32.899745 -117.279170 150 8710ft 285kts
21-Jun-17 16:22 32.836848 -117.229019 149 7408ft 281kts
21-Jun-17 16:23 32.799882 -117.155910 107 6533ft 270kts
21-Jun-17 16:24 32.780520 -117.076188 110 5894ft 247kts
21-Jun-17 16:25 32.757325 -117.004583 142 5227ft 224kts
21-Jun-17 16:26 32.704765 -117.006364 197 4611ft 201kts
21-Jun-17 16:27 32.700248 -117.049753 314 3934ft 166kts
21-Jun-17 16:28 32.710940 -117.095498 275 3091ft 141kts
21-Jun-17 16:29 32.719713 -117.136750 290 1942ft 138kts
21-Jun-17 16:30 32.731605 -117.178472 279 1686ft 152kts
21-Jun-17 16:31 32.744414 -117.231089 296 3826ft 199kts
21-Jun-17 16:32 32.780239 -117.294377 302 4975ft 247kts
21-Jun-17 16:33 32.839746 -117.299862 52 4982ft 271kts
21-Jun-17 16:34 32.841046 -117.212735 102 5004ft 282kts
21-Jun-17 16:35 32.826995 -117.124150 102 5007ft 280kts
21-Jun-17 16:36 32.812663 -117.034833 102 5057ft 280kts
21-Jun-17 16:37 32.797166 -116.948198 102 5113ft 275kts
21-Jun-17 16:38 32.780604 -116.860939 107 5138ft 272kts
21-Jun-17 16:39 32.721748 -116.835172 201 4649ft 248kts
21-Jun-17 16:40 32.676833 -116.883361 252 4058ft 221kts
21-Jun-17 16:41 32.675120 -116.948622 285 3821ft 196kts
21-Jun-17 16:42 32.689606 -117.008249 285 3086ft 176kts
21-Jun-17 16:43 32.701655 -117.057828 285 2142ft 138kts
21-Jun-17 16:44 32.711594 -117.099162 283 1758ft 134kts
21-Jun-17 16:45 32.721576 -117.140944 284 890ft 134kts
21-Jun-17 16:46 32.731865 -117.182609 284 30ft 126kts
21-Jun-17 16:47 32.735280 -117.197613 257 19ft 11kts
21-Jun-17 16:48 32.734867 -117.199150 268 19ft 0kts
21-Jun-17 16:49 32.734951 -117.199683 287 19ft 5kts
21-Jun-17 16:50 32.735462 -117.201890 267 19ft 4kts
21-Jun-17 16:51 32.733579 -117.202698 175 19ft 7kts
21-Jun-17 16:52 32.732553 -117.203331 243 19ft 2kts
21-Jun-17 16:53 32.732537 -117.203368 243 19ft 0kts

Navigation Log

Ident Type
1. KSFO Airport
2. SENZY Fix
3. SEGUL Fix
4. CYPRS Fix
5. MCKEY Fix
6. LAX Navaid
7. OTISS Fix
8. HUBRD Fix
9. BAYVU Fix
10. LCOVE Fix
11. STEPN Fix
12. KLOMN Fix
13. NADDO Fix
14. KSAN Airport